Time;durP1;ratioP1;P1;durP2;ratioP2;P2;SDS_P1;SDS_P2;PMS_P1;PMS_P2;Temp;Humidity;BMP_temperature;BMP_pressure;BME280_temperature;BME280_humidity;BME280_pressure;Samples;Min_cycle;Max_cycle;Signal;HPM_P1;HPM_P2
2022/05/31 00:00:56;;;;;;;2.45;1.30;;;10.00;99.90;;;;;;5042248;28;20403;-70
2022/05/31 00:03:22;;;;;;;2.43;1.20;;;10.00;99.90;;;;;;5044709;28;20052;-70
2022/05/31 00:05:48;;;;;;;3.10;1.47;;;10.00;99.90;;;;;;5040709;28;20099;-70
2022/05/31 00:08:13;;;;;;;3.40;1.33;;;10.00;99.90;;;;;;5043900;28;20041;-69
2022/05/31 00:10:39;;;;;;;1.92;1.33;;;9.90;99.90;;;;;;5039911;28;20032;-71
2022/05/31 00:13:05;;;;;;;5.60;1.53;;;9.90;99.90;;;;;;5020553;28;20044;-70
2022/05/31 00:15:30;;;;;;;2.55;1.50;;;9.80;99.90;;;;;;5041058;28;20045;-70
2022/05/31 00:17:56;;;;;;;3.33;1.65;;;9.80;99.90;;;;;;5043879;28;20293;-70
2022/05/31 00:20:22;;;;;;;3.87;1.90;;;9.80;99.90;;;;;;5039078;28;20102;-70
2022/05/31 00:22:47;;;;;;;2.20;1.23;;;9.80;99.90;;;;;;5027878;28;20029;-70
2022/05/31 00:25:14;;;;;;;2.63;1.50;;;9.70;99.90;;;;;;5037435;28;20417;-70
2022/05/31 00:27:39;;;;;;;;;;;9.70;99.90;;;;;;5037872;28;20048;-70
2022/05/31 00:30:06;;;;;;;2.63;1.60;;;9.70;99.90;;;;;;5040223;28;19920;-70
2022/05/31 00:32:33;;;;;;;;;;;9.70;99.90;;;;;;5039714;28;20053;-70
2022/05/31 00:35:03;;;;;;;4.00;1.58;;;9.70;99.90;;;;;;5022002;28;20004;-71
2022/05/31 00:37:28;;;;;;;2.33;1.30;;;9.70;99.90;;;;;;5043144;28;20144;-70
2022/05/31 00:39:54;;;;;;;2.60;1.57;;;9.70;99.90;;;;;;5043624;28;20119;-71
2022/05/31 00:42:21;;;;;;;4.60;1.30;;;9.70;99.90;;;;;;5024604;28;20136;-70
2022/05/31 00:44:48;;;;;;;4.22;1.58;;;9.70;99.90;;;;;;5030676;28;20171;-70
2022/05/31 00:47:17;;;;;;;3.03;1.52;;;9.60;99.90;;;;;;5039980;28;20557;-70
2022/05/31 00:50:11;;;;;;;2.80;1.60;;;9.60;99.90;;;;;;5046751;28;20440;-71
2022/05/31 00:52:42;;;;;;;3.00;1.40;;;9.60;99.90;;;;;;5043378;28;20155;-71
2022/05/31 00:55:17;;;;;;;2.28;1.20;;;9.60;99.90;;;;;;5047561;28;20072;-70
2022/05/31 00:57:56;;;;;;;2.30;1.40;;;9.50;99.90;;;;;;5048518;28;20033;-70
2022/05/31 01:00:22;;;;;;;2.75;1.60;;;9.50;99.90;;;;;;5035650;28;20041;-70
2022/05/31 01:02:49;;;;;;;2.80;1.70;;;9.50;99.90;;;;;;5043200;28;20372;-70
2022/05/31 01:05:16;;;;;;;3.97;1.58;;;9.50;99.90;;;;;;5038956;28;20045;-70
2022/05/31 01:07:41;;;;;;;2.50;1.23;;;9.50;99.90;;;;;;5040732;28;20136;-70
2022/05/31 01:10:10;;;;;;;2.28;1.65;;;9.40;99.90;;;;;;5042719;28;20202;-70
2022/05/31 01:12:38;;;;;;;2.17;1.63;;;9.40;99.90;;;;;;5034115;28;20101;-70
2022/05/31 01:15:04;;;;;;;2.28;1.52;;;9.40;99.90;;;;;;5059484;28;20053;-70
2022/05/31 01:17:30;;;;;;;2.53;1.42;;;9.40;99.90;;;;;;5037093;28;20472;-70
2022/05/31 01:19:55;;;;;;;2.60;1.40;;;9.40;99.90;;;;;;5040963;28;20089;-69
2022/05/31 01:22:23;;;;;;;4.17;1.80;;;9.30;99.90;;;;;;5041202;28;20458;-69
2022/05/31 01:27:37;;;;;;;2.67;1.63;;;9.30;99.90;;;;;;5046074;28;20354;-68
2022/05/31 01:30:06;;;;;;;2.05;1.23;;;9.30;99.90;;;;;;5030139;28;20041;-68
2022/05/31 01:32:33;;;;;;;2.45;1.50;;;9.30;99.90;;;;;;5048380;28;20041;-68
2022/05/31 01:35:09;;;;;;;3.22;1.40;;;9.30;99.90;;;;;;5048091;28;20518;-68
2022/05/31 01:38:19;;;;;;;2.03;1.30;;;9.30;99.90;;;;;;5047736;28;20047;-68
2022/05/31 01:41:06;;;;;;;4.50;1.60;;;9.30;99.90;;;;;;5047530;28;20063;-68
2022/05/31 01:43:33;;;;;;;1.75;1.27;;;9.30;99.90;;;;;;5048209;28;20048;-68
2022/05/31 01:46:12;;;;;;;2.25;1.42;;;9.30;99.90;;;;;;5047896;28;20041;-68
2022/05/31 01:48:40;;;;;;;1.77;1.20;;;9.30;99.90;;;;;;5048026;28;20393;-68
2022/05/31 01:51:06;;;;;;;2.25;1.38;;;9.20;99.90;;;;;;5047587;28;20082;-68
2022/05/31 01:53:34;;;;;;;2.88;1.60;;;9.30;99.90;;;;;;5047837;28;20084;-68
2022/05/31 01:56:01;;;;;;;2.28;1.50;;;9.20;99.90;;;;;;5030184;28;20036;-68
2022/05/31 01:58:31;;;;;;;3.67;1.42;;;9.20;99.90;;;;;;5047799;28;20438;-68
2022/05/31 02:00:57;;;;;;;3.50;2.05;;;9.20;99.90;;;;;;5048328;28;20049;-68
2022/05/31 02:03:23;;;;;;;2.37;1.33;;;9.20;99.90;;;;;;5030077;28;20493;-68
2022/05/31 02:05:51;;;;;;;2.28;1.25;;;9.20;99.90;;;;;;5029224;28;20520;-68
2022/05/31 02:08:19;;;;;;;3.17;1.70;;;9.20;99.90;;;;;;5029644;28;20049;-68
2022/05/31 02:10:45;;;;;;;2.50;1.75;;;9.30;99.90;;;;;;5047596;28;20426;-68
2022/05/31 02:13:11;;;;;;;;;;;9.30;99.90;;;;;;5047754;28;20480;-68
2022/05/31 02:15:37;;;;;;;4.43;1.52;;;9.30;99.90;;;;;;5030074;28;19974;-68
2022/05/31 02:18:03;;;;;;;2.40;1.50;;;9.30;99.90;;;;;;5047603;28;20087;-68
2022/05/31 02:20:28;;;;;;;5.27;1.77;;;9.40;99.90;;;;;;5047775;28;20117;-67
2022/05/31 02:22:54;;;;;;;4.03;1.93;;;9.40;99.90;;;;;;5047979;28;20457;-68
2022/05/31 02:25:20;;;;;;;3.13;1.70;;;9.40;99.90;;;;;;5047223;28;20075;-68
2022/05/31 02:27:46;;;;;;;3.87;1.60;;;9.40;99.90;;;;;;5014936;28;20082;-68
2022/05/31 02:30:12;;;;;;;3.17;1.63;;;9.50;99.90;;;;;;5033088;28;20059;-68
2022/05/31 02:32:38;;;;;;;3.00;1.58;;;9.50;99.90;;;;;;5051167;28;20079;-68
2022/05/31 02:35:06;;;;;;;2.47;1.50;;;9.50;99.90;;;;;;5051047;28;20065;-68
2022/05/31 02:37:31;;;;;;;2.63;1.50;;;9.50;99.90;;;;;;5032437;28;20121;-68
2022/05/31 02:39:57;;;;;;;3.80;1.50;;;9.50;99.90;;;;;;5032992;28;20492;-68
2022/05/31 02:42:23;;;;;;;3.00;1.60;;;9.50;99.90;;;;;;5032475;28;20124;-68
2022/05/31 02:44:49;;;;;;;3.60;1.97;;;9.50;99.90;;;;;;5032619;28;20382;-68
2022/05/31 02:47:14;;;;;;;4.00;1.80;;;9.50;99.90;;;;;;5050910;28;20041;-68
2022/05/31 02:49:42;;;;;;;4.73;1.80;;;9.50;99.90;;;;;;5032942;28;20096;-68
2022/05/31 02:52:08;;;;;;;2.42;1.50;;;9.50;99.90;;;;;;5032348;28;20041;-68
2022/05/31 02:54:34;;;;;;;3.47;1.83;;;9.50;99.90;;;;;;5044300;28;20044;-68
2022/05/31 02:57:00;;;;;;;3.28;1.85;;;9.50;99.90;;;;;;4996405;28;20406;-68
2022/05/31 02:59:25;;;;;;;3.37;1.40;;;9.60;99.90;;;;;;5012729;28;20045;-68
2022/05/31 03:01:51;;;;;;;2.93;1.63;;;9.50;99.90;;;;;;5035280;28;20033;-68
2022/05/31 03:04:18;;;;;;;6.00;1.40;;;9.50;99.90;;;;;;5050725;28;20481;-68
2022/05/31 03:06:44;;;;;;;2.72;1.52;;;9.50;99.90;;;;;;5050010;28;20045;-68
2022/05/31 03:09:09;;;;;;;2.00;1.17;;;9.50;99.90;;;;;;5050597;28;20359;-68
2022/05/31 03:11:47;;;;;;;2.90;1.73;;;9.60;99.90;;;;;;5050308;28;20473;-68
2022/05/31 03:14:22;;;;;;;2.00;1.23;;;9.60;99.90;;;;;;5029993;28;20409;-68
2022/05/31 03:16:56;;;;;;;3.05;1.60;;;9.60;99.90;;;;;;5032738;28;20059;-68
2022/05/31 03:19:26;;;;;;;2.55;1.70;;;9.60;99.90;;;;;;5050376;28;20041;-68
2022/05/31 03:22:05;;;;;;;3.97;1.90;;;9.60;99.90;;;;;;5048717;28;20051;-68
2022/05/31 03:24:43;;;;;;;3.58;1.40;;;9.60;99.90;;;;;;5049997;28;20060;-68
2022/05/31 03:27:10;;;;;;;2.40;1.60;;;9.60;99.90;;;;;;5047957;28;20113;-68
2022/05/31 03:29:39;;;;;;;3.25;1.85;;;9.60;99.90;;;;;;5050180;28;20187;-68
2022/05/31 03:32:06;;;;;;;5.60;1.83;;;9.60;99.90;;;;;;5031720;28;20114;-67
2022/05/31 03:34:32;;;;;;;;;;;9.60;99.90;;;;;;5050590;28;20041;-68
2022/05/31 03:36:58;;;;;;;2.72;1.63;;;9.70;99.90;;;;;;5031527;28;20007;-68
2022/05/31 03:39:24;;;;;;;2.13;1.53;;;9.70;99.90;;;;;;5049358;28;20428;-68
2022/05/31 03:41:49;;;;;;;4.77;2.03;;;9.70;99.90;;;;;;5049600;28;20783;-68
2022/05/31 03:44:15;;;;;;;3.27;1.80;;;9.70;99.90;;;;;;5014659;28;20283;-68
2022/05/31 03:46:40;;;;;;;2.67;1.53;;;9.70;99.90;;;;;;5049857;28;20408;-68
2022/05/31 03:49:06;;;;;;;2.97;1.63;;;9.70;99.90;;;;;;5031661;28;20037;-68
2022/05/31 03:51:32;;;;;;;3.95;1.60;;;9.70;99.90;;;;;;5049989;28;20103;-68
2022/05/31 03:53:58;;;;;;;3.77;1.60;;;9.70;99.90;;;;;;5049903;28;20065;-68
2022/05/31 03:56:23;;;;;;;2.90;1.90;;;9.80;99.90;;;;;;5048907;28;20033;-68
2022/05/31 03:58:49;;;;;;;2.93;1.67;;;9.80;99.90;;;;;;5048312;28;20037;-68
2022/05/31 04:01:15;;;;;;;2.57;1.53;;;9.80;99.90;;;;;;5049689;28;20045;-68
2022/05/31 04:03:41;;;;;;;3.07;1.73;;;9.80;99.90;;;;;;5049964;28;20040;-68
2022/05/31 04:06:07;;;;;;;2.83;1.67;;;9.80;99.90;;;;;;5048952;28;20107;-68
2022/05/31 04:08:33;;;;;;;3.33;2.22;;;9.90;99.90;;;;;;5049198;28;20248;-68
2022/05/31 04:10:59;;;;;;;3.50;1.85;;;9.90;99.90;;;;;;5049075;28;20061;-68
2022/05/31 04:13:25;;;;;;;4.40;1.70;;;9.90;99.90;;;;;;5049013;28;20550;-68
2022/05/31 04:16:02;;;;;;;3.13;2.00;;;9.90;99.90;;;;;;5048608;28;20048;-68
2022/05/31 04:18:28;;;;;;;3.22;1.52;;;9.90;99.90;;;;;;5031692;28;20049;-68
2022/05/31 04:20:59;;;;;;;3.10;1.83;;;9.90;99.90;;;;;;5049191;28;20191;-68
2022/05/31 04:26:09;;;;;;;2.92;1.73;;;9.90;99.90;;;;;;5030146;28;20049;-68
2022/05/31 04:28:34;;;;;;;2.93;1.50;;;9.90;99.90;;;;;;5049152;28;20098;-67
2022/05/31 04:31:04;;;;;;;3.47;1.75;;;10.00;99.90;;;;;;5048811;28;20037;-68
2022/05/31 04:33:29;;;;;;;4.35;2.13;;;10.00;99.90;;;;;;5031350;28;20071;-68
2022/05/31 04:36:04;;;;;;;4.43;1.90;;;10.00;99.90;;;;;;5048704;28;20037;-68
2022/05/31 04:38:30;;;;;;;3.13;1.70;;;10.00;99.90;;;;;;5014364;28;20044;-68
2022/05/31 04:40:56;;;;;;;3.85;1.90;;;10.00;99.90;;;;;;5048938;28;20044;-68
2022/05/31 04:43:21;;;;;;;3.13;1.97;;;10.10;99.90;;;;;;5048863;28;20512;-68
2022/05/31 04:45:47;;;;;;;4.17;2.00;;;10.10;99.90;;;;;;5048667;28;20085;-68
2022/05/31 04:48:13;;;;;;;3.93;2.50;;;10.10;99.90;;;;;;5049043;28;20132;-68
2022/05/31 04:50:38;;;;;;;2.83;1.80;;;10.10;99.90;;;;;;5043638;28;20037;-68
2022/05/31 04:53:04;;;;;;;3.30;2.00;;;10.10;99.90;;;;;;5049051;28;20243;-68
2022/05/31 04:55:30;;;;;;;4.57;1.70;;;10.20;99.90;;;;;;5047792;28;20045;-68
2022/05/31 04:57:55;;;;;;;3.40;1.93;;;10.20;99.90;;;;;;5048758;28;20120;-68
2022/05/31 05:00:21;;;;;;;3.23;1.97;;;10.20;99.90;;;;;;5048752;28;20155;-68
2022/05/31 05:02:47;;;;;;;3.00;1.90;;;10.30;99.90;;;;;;5048435;28;20064;-68
2022/05/31 05:05:13;;;;;;;3.70;1.90;;;10.30;99.90;;;;;;5048447;28;20111;-68
2022/05/31 05:07:39;;;;;;;2.90;1.95;;;10.30;99.90;;;;;;5029856;28;20120;-68
2022/05/31 05:10:06;;;;;;;2.10;1.50;;;10.30;99.90;;;;;;5031223;28;20190;-67
2022/05/31 05:12:31;;;;;;;4.32;1.88;;;10.30;99.90;;;;;;5048061;28;20098;-67
2022/05/31 05:14:57;;;;;;;3.37;2.07;;;10.40;99.90;;;;;;5029936;28;20120;-68
2022/05/31 05:17:24;;;;;;;3.33;2.00;;;10.40;99.90;;;;;;5048268;28;20472;-68
2022/05/31 05:19:49;;;;;;;5.05;1.92;;;10.40;99.90;;;;;;5048488;28;20063;-68
2022/05/31 05:22:15;;;;;;;3.50;2.23;;;10.40;99.90;;;;;;5047943;28;20040;-68
2022/05/31 05:24:41;;;;;;;6.93;2.63;;;10.50;99.90;;;;;;5048892;28;20275;-68
2022/05/31 05:27:07;;;;;;;4.22;1.88;;;10.50;99.90;;;;;;5047300;28;20485;-69
2022/05/31 05:32:17;;;;;;;8.02;2.30;;;10.50;99.90;;;;;;5045374;28;20136;-67
2022/05/31 05:34:43;;;;;;;2.13;1.50;;;10.60;99.90;;;;;;5047571;28;20105;-72
2022/05/31 05:37:08;;;;;;;4.53;1.87;;;10.60;99.90;;;;;;5029288;28;20053;-74
2022/05/31 05:39:34;;;;;;;4.10;2.00;;;10.60;99.90;;;;;;5047540;28;20059;-69
2022/05/31 05:41:59;;;;;;;6.07;3.27;;;10.60;99.90;;;;;;5044367;28;20074;-70
2022/05/31 05:44:26;;;;;;;4.07;1.90;;;10.60;99.90;;;;;;5041540;28;20349;-68
2022/05/31 05:46:52;;;;;;;9.50;2.42;;;10.60;99.90;;;;;;5047433;28;20051;-68
2022/05/31 05:49:17;;;;;;;4.18;2.30;;;10.70;99.90;;;;;;5041080;28;20135;-69
2022/05/31 05:51:45;;;;;;;4.83;2.30;;;10.70;99.90;;;;;;5036989;28;20043;-72
2022/05/31 05:54:11;;;;;;;4.90;2.10;;;10.80;99.90;;;;;;5028001;28;20037;-68
2022/05/31 05:56:37;;;;;;;5.10;1.93;;;10.80;99.90;;;;;;5041709;28;20056;-69
2022/05/31 05:59:02;;;;;;;6.07;2.53;;;10.90;99.90;;;;;;5027087;28;20041;-69
2022/05/31 06:01:38;;;;;;;5.50;2.43;;;10.90;99.90;;;;;;5028999;28;20132;-68
2022/05/31 06:04:25;;;;;;;3.47;2.40;;;11.00;99.90;;;;;;5032395;28;20095;-68
2022/05/31 06:07:14;;;;;;;5.25;2.60;;;11.10;99.90;;;;;;5049182;28;20044;-74
2022/05/31 06:09:46;;;;;;;3.15;1.95;;;11.10;99.90;;;;;;5034607;28;20037;-68
2022/05/31 06:12:18;;;;;;;6.40;2.45;;;11.20;99.90;;;;;;5049971;28;20045;-68
2022/05/31 06:14:57;;;;;;;3.03;1.70;;;11.20;99.90;;;;;;5027404;28;20041;-68
2022/05/31 06:17:27;;;;;;;3.63;1.80;;;11.20;99.90;;;;;;5046769;28;20116;-68
2022/05/31 06:19:53;;;;;;;3.33;1.88;;;11.30;99.90;;;;;;5036213;28;20118;-67
2022/05/31 06:22:20;;;;;;;3.43;1.70;;;11.40;99.90;;;;;;5050854;28;20080;-68
2022/05/31 06:24:46;;;;;;;3.35;2.00;;;11.40;99.90;;;;;;5051417;28;20348;-67
2022/05/31 06:27:12;;;;;;;6.43;2.17;;;11.40;99.90;;;;;;5050446;28;20134;-68
2022/05/31 06:29:37;;;;;;;3.63;2.07;;;11.40;99.90;;;;;;5033771;28;20049;-68
2022/05/31 06:32:03;;;;;;;3.20;1.90;;;11.50;99.90;;;;;;5050588;28;20123;-67
2022/05/31 06:34:29;;;;;;;5.72;2.08;;;11.50;99.90;;;;;;5033189;28;20056;-67
2022/05/31 06:37:05;;;;;;;3.87;2.13;;;11.60;99.90;;;;;;5050879;28;20037;-68
2022/05/31 06:39:30;;;;;;;3.97;1.80;;;11.60;99.90;;;;;;5032539;28;20045;-68
2022/05/31 06:41:56;;;;;;;4.07;2.45;;;11.70;99.90;;;;;;5050768;28;20045;-68
2022/05/31 06:44:21;;;;;;;6.57;2.60;;;11.80;99.90;;;;;;5050183;28;20068;-68
2022/05/31 06:46:47;;;;;;;6.13;2.40;;;11.80;99.90;;;;;;5050238;28;20118;-67
2022/05/31 06:49:13;;;;;;;3.83;2.53;;;11.90;99.90;;;;;;5033194;28;20036;-67
2022/05/31 06:57:07;;;;;;;4.85;2.22;;;12.10;99.90;;;;;;5034733;28;20124;-67
2022/05/31 06:59:32;;;;;;;2.67;1.80;;;12.20;99.90;;;;;;5050786;28;20524;-67
2022/05/31 07:02:03;;;;;;;7.47;2.10;;;12.20;99.90;;;;;;5050289;28;20077;-68
2022/05/31 07:04:36;;;;;;;4.13;1.85;;;12.20;99.90;;;;;;5050965;28;20376;-67
2022/05/31 07:07:03;;;;;;;4.93;2.60;;;12.30;99.90;;;;;;5049725;28;20102;-67
2022/05/31 07:09:28;;;;;;;4.45;2.10;;;12.30;99.90;;;;;;5050422;28;20060;-67
2022/05/31 07:11:57;;;;;;;3.97;2.13;;;12.30;99.90;;;;;;5050263;28;20033;-67
2022/05/31 07:14:27;;;;;;;4.65;2.05;;;12.30;99.90;;;;;;5030600;28;20040;-67
2022/05/31 07:16:53;;;;;;;6.65;2.78;;;12.40;99.90;;;;;;5032116;28;20144;-67
2022/05/31 07:19:18;;;;;;;3.70;2.20;;;12.40;99.90;;;;;;5049785;28;20199;-67
2022/05/31 07:21:44;;;;;;;4.80;1.90;;;12.40;99.90;;;;;;5050179;28;20043;-67
2022/05/31 07:24:10;;;;;;;4.70;2.05;;;12.40;99.90;;;;;;5050065;28;20386;-67
2022/05/31 07:26:54;;;;;;;3.97;1.73;;;12.50;99.90;;;;;;5069236;22;20415;-83
2022/05/31 07:29:29;;;;;;;4.68;1.92;;;12.50;99.90;;;;;;5026583;28;20079;-82
2022/05/31 07:32:19;;;;;;;;;;;;;;;;;;;;;
2022/05/31 07:35:50;;;;;;;;;;;;;;;;;;;;;
2022/05/31 07:38:20;;;;;;;4.38;1.77;;;12.70;99.90;;;;;;4994274;28;20053;-83
2022/05/31 07:41:32;;;;;;;5.20;1.92;;;12.80;99.90;;;;;;4984893;28;20069;-84
2022/05/31 07:44:27;;;;;;;3.10;1.83;;;12.80;99.90;;;;;;4976880;28;20055;-83
2022/05/31 07:47:15;;;;;;;4.50;1.80;;;12.90;99.90;;;;;;4953628;28;20045;-84
2022/05/31 07:50:41;;;;;;;3.83;1.70;;;13.00;99.90;;;;;;4969208;28;20133;-84
2022/05/31 07:53:09;;;;;;;4.65;1.90;;;13.00;99.90;;;;;;4982071;28;20168;-83
2022/05/31 07:55:55;;;;;;;;;;;;;;;;;;;;;
2022/05/31 08:02:16;;;;;;;;;;;13.20;99.90;;;;;;5007381;28;20055;-83
2022/05/31 08:07:26;;;;;;;4.93;1.80;;;13.40;99.90;;;;;;5053091;22;20233;-70
2022/05/31 08:09:52;;;;;;;5.63;2.13;;;13.60;99.90;;;;;;5019884;28;20244;-70
2022/05/31 08:12:18;;;;;;;5.57;2.37;;;13.60;99.90;;;;;;5009039;28;20099;-70
2022/05/31 08:14:43;;;;;;;4.20;2.03;;;13.80;99.90;;;;;;5033228;28;21068;-70
2022/05/31 08:17:10;;;;;;;4.73;2.00;;;13.90;99.90;;;;;;5037477;28;20056;-70
2022/05/31 08:19:36;;;;;;;;;;;14.00;99.90;;;;;;5017405;28;20144;-70
2022/05/31 08:22:02;;;;;;;3.45;2.17;;;14.00;99.90;;;;;;5048077;28;19917;-70
2022/05/31 08:24:28;;;;;;;3.55;2.53;;;14.20;99.90;;;;;;5040755;28;20248;-70
2022/05/31 08:26:54;;;;;;;4.80;1.83;;;14.30;99.90;;;;;;5040437;28;20091;-70
2022/05/31 08:29:20;;;;;;;3.58;2.30;;;14.40;99.90;;;;;;5036799;28;20037;-70
2022/05/31 08:31:46;;;;;;;2.85;1.70;;;14.40;99.90;;;;;;5028078;28;20436;-70
2022/05/31 08:34:13;;;;;;;4.28;2.70;;;14.50;99.90;;;;;;5044285;28;20041;-70
2022/05/31 08:36:39;;;;;;;3.13;1.80;;;14.60;99.90;;;;;;5040700;28;20045;-70
2022/05/31 08:39:05;;;;;;;6.72;2.13;;;14.70;99.90;;;;;;5046952;28;20555;-70
2022/05/31 08:41:36;;;;;;;4.55;2.35;;;14.80;99.90;;;;;;5033993;28;20266;-70
2022/05/31 08:44:39;;;;;;;6.97;2.90;;;14.80;99.90;;;;;;5030524;28;20044;-70
2022/05/31 08:47:44;;;;;;;5.18;2.42;;;14.90;99.90;;;;;;5036926;28;20332;-70
2022/05/31 08:53:22;;;;;;;6.57;3.08;;;15.20;99.90;;;;;;5038092;28;20142;-70
2022/05/31 08:59:04;;;;;;;4.78;2.83;;;15.30;99.90;;;;;;5034822;28;20135;-70
2022/05/31 09:01:38;;;;;;;4.32;2.63;;;15.50;99.90;;;;;;5043157;28;20363;-70
2022/05/31 09:04:20;;;;;;;3.05;2.08;;;15.60;99.90;;;;;;5042867;28;20504;-70
2022/05/31 09:06:47;;;;;;;4.75;2.50;;;15.70;99.90;;;;;;5030953;28;20561;-70
2022/05/31 09:09:16;;;;;;;4.72;3.17;;;15.80;99.90;;;;;;5044823;28;20071;-70
2022/05/31 09:12:14;;;;;;;7.00;2.65;;;15.90;99.90;;;;;;5038266;28;20374;-70
2022/05/31 09:15:13;;;;;;;4.85;3.00;;;16.00;99.90;;;;;;5036692;28;20098;-70
2022/05/31 09:18:06;;;;;;;4.85;3.25;;;16.00;99.90;;;;;;5021921;28;20523;-70
2022/05/31 09:20:50;;;;;;;4.97;2.60;;;15.90;99.90;;;;;;5038678;28;20041;-70
2022/05/31 09:23:34;;;;;;;5.43;2.70;;;16.00;99.90;;;;;;5048793;28;20122;-70
2022/05/31 09:26:15;;;;;;;4.78;3.20;;;15.90;99.90;;;;;;5031368;28;21096;-71
2022/05/31 09:29:03;;;;;;;6.93;2.95;;;15.90;99.90;;;;;;5021997;28;20037;-71
2022/05/31 09:31:40;;;;;;;3.97;2.80;;;15.80;99.90;;;;;;5033473;28;20045;-71
2022/05/31 09:34:06;;;;;;;6.43;3.30;;;15.80;99.90;;;;;;5032507;28;20041;-70
2022/05/31 09:37:11;;;;;;;4.85;2.88;;;15.80;99.90;;;;;;5040675;28;20095;-70
2022/05/31 09:40:07;;;;;;;4.72;2.60;;;15.70;99.90;;;;;;4981116;28;20469;-70
2022/05/31 09:42:56;;;;;;;4.68;2.80;;;15.70;99.90;;;;;;5022821;28;20089;-70
2022/05/31 09:45:22;;;;;;;5.28;3.40;;;15.70;99.90;;;;;;5036954;28;20045;-70
2022/05/31 09:47:50;;;;;;;6.35;3.08;;;15.80;99.90;;;;;;5023481;28;20109;-70
2022/05/31 09:50:24;;;;;;;4.20;3.08;;;15.80;99.90;;;;;;5053486;28;20040;-70
2022/05/31 09:52:56;;;;;;;5.03;2.80;;;15.70;99.90;;;;;;5033908;28;20036;-70
2022/05/31 09:58:19;;;;;;;3.58;2.35;;;15.80;99.90;;;;;;5026575;28;20122;-70
2022/05/31 10:01:20;;;;;;;4.28;2.13;;;15.80;99.90;;;;;;5022499;28;20041;-71
2022/05/31 10:03:55;;;;;;;5.00;2.60;;;15.80;99.90;;;;;;5030741;28;20240;-70
2022/05/31 10:06:27;;;;;;;7.03;3.65;;;15.70;99.90;;;;;;5044345;28;20102;-70
2022/05/31 10:08:54;;;;;;;5.70;3.20;;;15.70;99.90;;;;;;5047288;28;20049;-70
2022/05/31 10:11:44;;;;;;;4.60;2.80;;;15.80;99.90;;;;;;5031428;28;20044;-70
2022/05/31 10:14:20;;;;;;;5.53;3.15;;;15.80;99.90;;;;;;5030585;28;20114;-71
2022/05/31 10:16:49;;;;;;;;;;;15.90;99.20;;;;;;5016368;28;20557;-70
2022/05/31 10:19:26;;;;;;;6.25;3.70;;;15.90;99.90;;;;;;5050668;28;19917;-71
2022/05/31 10:21:52;;;;;;;5.55;3.40;;;16.00;99.90;;;;;;5047201;28;20078;-71
2022/05/31 10:24:18;;;;;;;;;;;16.10;99.90;;;;;;5049456;28;20045;-71
2022/05/31 10:27:05;;;;;;;6.72;2.55;;;16.20;99.90;;;;;;5002985;28;19955;-71
2022/05/31 10:29:46;;;;;;;;;;;16.20;99.90;;;;;;5035447;28;20417;-70
2022/05/31 10:32:40;;;;;;;5.32;3.33;;;16.20;99.90;;;;;;5018265;28;19917;-69
2022/05/31 10:35:26;;;;;;;8.50;3.33;;;16.30;99.90;;;;;;5043137;28;20082;-69
2022/05/31 10:37:58;;;;;;;6.50;3.05;;;16.30;99.90;;;;;;5054490;28;20040;-69
2022/05/31 10:40:26;;;;;;;5.70;3.08;;;16.30;99.90;;;;;;5045851;28;20034;-69
2022/05/31 10:42:57;;;;;;;5.60;3.17;;;16.30;99.90;;;;;;5029976;28;20029;-70
2022/05/31 10:45:26;;;;;;;6.22;2.63;;;16.30;99.90;;;;;;5048872;28;20041;-70
2022/05/31 10:47:55;;;;;;;8.35;2.80;;;16.30;99.90;;;;;;5050891;28;20061;-70
2022/05/31 10:50:23;;;;;;;4.32;3.00;;;16.30;99.90;;;;;;5043346;28;20040;-70
2022/05/31 10:53:13;;;;;;;5.85;2.75;;;16.30;99.90;;;;;;5026088;28;20497;-70
2022/05/31 10:55:47;;;;;;;7.30;2.90;;;16.40;99.90;;;;;;5025041;28;20049;-70
2022/05/31 10:58:25;;;;;;;4.20;2.95;;;16.40;99.90;;;;;;5046488;28;20640;-70
2022/05/31 11:00:59;;;;;;;5.80;2.75;;;16.30;95.20;;;;;;5030690;28;20037;-70
2022/05/31 11:03:33;;;;;;;6.63;2.80;;;16.30;99.90;;;;;;5040934;28;20048;-70
2022/05/31 11:06:21;;;;;;;4.90;2.80;;;16.30;99.30;;;;;;5023782;28;20589;-70
2022/05/31 11:12:07;;;;;;;6.45;2.92;;;16.30;99.00;;;;;;5041917;28;20056;-71
2022/05/31 11:15:05;;;;;;;4.25;2.33;;;16.50;96.30;;;;;;5028941;28;20034;-71
2022/05/31 11:17:35;;;;;;;6.40;1.98;;;16.80;90.30;;;;;;5028275;28;20279;-71
2022/05/31 11:20:24;;;;;;;5.00;2.08;;;17.00;97.10;;;;;;5029494;28;20044;-71
2022/05/31 11:23:12;;;;;;;3.30;1.70;;;17.20;92.80;;;;;;5022949;28;20092;-71
2022/05/31 11:25:56;;;;;;;4.78;1.85;;;17.40;89.80;;;;;;5046086;28;20052;-71
2022/05/31 11:28:36;;;;;;;3.92;2.10;;;17.50;80.60;;;;;;5032971;28;20071;-71
2022/05/31 11:31:14;;;;;;;4.00;1.98;;;17.50;92.50;;;;;;5042458;28;20041;-71
2022/05/31 11:34:07;;;;;;;3.88;1.90;;;17.50;90.70;;;;;;5040984;28;20033;-71
2022/05/31 11:36:56;;;;;;;3.15;2.05;;;17.40;86.50;;;;;;5027772;28;20056;-71
2022/05/31 11:39:48;;;;;;;3.85;2.42;;;17.40;91.00;;;;;;5029783;28;20087;-71
2022/05/31 11:42:47;;;;;;;5.55;2.85;;;17.20;90.10;;;;;;5041795;28;20049;-70
2022/05/31 11:45:37;;;;;;;6.53;2.90;;;17.10;88.00;;;;;;5030564;28;20044;-71
2022/05/31 11:48:06;;;;;;;4.05;2.67;;;17.10;89.40;;;;;;5036954;28;20203;-70
2022/05/31 11:50:57;;;;;;;8.40;2.70;;;17.00;91.50;;;;;;5024434;28;20041;-70
2022/05/31 11:53:53;;;;;;;5.40;2.88;;;16.90;91.10;;;;;;5048403;28;20033;-70
2022/05/31 11:56:33;;;;;;;6.43;3.10;;;16.90;91.00;;;;;;5038980;28;20063;-70
2022/05/31 11:59:14;;;;;;;6.63;3.10;;;16.90;93.90;;;;;;5044920;28;20194;-71
2022/05/31 12:02:00;;;;;;;5.30;3.00;;;16.90;95.20;;;;;;5011973;28;20034;-70
2022/05/31 12:05:10;;;;;;;11.73;3.45;;;16.90;95.50;;;;;;5039562;28;20132;-70
2022/05/31 12:07:48;;;;;;;5.38;2.97;;;16.90;96.50;;;;;;5006041;28;20536;-71
2022/05/31 12:10:24;;;;;;;5.93;3.60;;;17.00;96.80;;;;;;5016935;28;20570;-70
2022/05/31 12:12:52;;;;;;;6.40;3.38;;;16.90;93.40;;;;;;5017560;28;20131;-71
2022/05/31 12:15:24;;;;;;;6.82;3.72;;;16.90;93.50;;;;;;5034728;28;20087;-70
2022/05/31 12:18:18;;;;;;;5.90;3.30;;;16.80;94.00;;;;;;5050545;28;20120;-70
2022/05/31 12:20:48;;;;;;;10.30;3.85;;;16.80;92.50;;;;;;5041680;28;20060;-70
2022/05/31 12:24:06;;;;;;;5.97;2.80;;;16.70;95.30;;;;;;5046752;28;20066;-71
2022/05/31 12:26:41;;;;;;;4.15;2.72;;;16.70;91.90;;;;;;5013972;28;20060;-69
2022/05/31 12:29:11;;;;;;;6.78;2.53;;;16.70;93.70;;;;;;5036410;28;20053;-70
2022/05/31 12:31:39;;;;;;;3.15;2.42;;;16.60;94.90;;;;;;5028680;28;20576;-69
2022/05/31 12:34:31;;;;;;;7.22;2.55;;;16.50;94.80;;;;;;5038106;28;20056;-70
2022/05/31 12:37:08;;;;;;;8.30;2.70;;;16.50;92.50;;;;;;5013656;28;20045;-70
2022/05/31 12:39:34;;;;;;;;;;;16.50;95.30;;;;;;5031014;28;20401;-71
2022/05/31 12:42:13;;;;;;;6.70;2.75;;;16.40;92.70;;;;;;5047264;28;20392;-70
2022/05/31 12:44:48;;;;;;;6.63;3.25;;;16.30;94.20;;;;;;5036136;28;20049;-70
2022/05/31 12:47:31;;;;;;;6.93;2.95;;;16.30;96.20;;;;;;5033464;28;20568;-70
2022/05/31 12:49:57;;;;;;;5.63;2.50;;;16.30;93.80;;;;;;5039518;28;20052;-70
2022/05/31 12:54:54;;;;;;;6.93;2.40;;;16.20;93.90;;;;;;5040309;28;20351;-71
2022/05/31 12:57:22;;;;;;;5.63;3.03;;;16.20;92.80;;;;;;5024934;28;20086;-71
2022/05/31 12:59:50;;;;;;;6.57;3.05;;;16.10;93.00;;;;;;5027377;28;20128;-70
2022/05/31 13:02:37;;;;;;;6.00;3.00;;;16.10;92.90;;;;;;5029099;28;20036;-70
2022/05/31 13:05:25;;;;;;;4.72;2.08;;;16.10;93.10;;;;;;5024437;28;20048;-70
2022/05/31 13:08:12;;;;;;;6.97;2.90;;;16.10;93.70;;;;;;5028942;28;20057;-71
2022/05/31 13:19:34;;;;;;;4.25;2.38;;;16.10;93.00;;;;;;5040826;28;20047;-70
2022/05/31 13:19:34;;;;;;;5.43;2.13;;;16.30;94.50;;;;;;5018001;28;20076;-70
2022/05/31 13:22:03;;;;;;;3.97;2.20;;;16.30;94.20;;;;;;5021839;28;20044;-69
2022/05/31 13:24:30;;;;;;;4.32;2.50;;;16.30;93.00;;;;;;5035145;28;20038;-70
2022/05/31 13:26:58;;;;;;;4.32;2.30;;;16.40;93.50;;;;;;5088978;23;20053;-70
2022/05/31 13:29:24;;;;;;;9.00;2.50;;;16.50;92.40;;;;;;5020997;28;20111;-70
2022/05/31 13:31:56;;;;;;;3.88;2.22;;;16.50;93.80;;;;;;5023611;28;20112;-70
2022/05/31 13:34:38;;;;;;;3.83;1.95;;;16.50;93.90;;;;;;5004834;28;20107;-70
2022/05/31 13:37:16;;;;;;;5.80;2.03;;;16.60;93.30;;;;;;5015011;28;20115;-70
2022/05/31 13:39:45;;;;;;;3.05;2.00;;;16.70;92.10;;;;;;5013096;28;20087;-70
2022/05/31 13:42:34;;;;;;;7.47;2.72;;;16.70;93.10;;;;;;5019659;28;20048;-70
2022/05/31 13:45:13;;;;;;;7.80;3.10;;;16.70;92.10;;;;;;5017649;28;20816;-70
2022/05/31 13:47:50;;;;;;;4.00;2.67;;;16.80;92.00;;;;;;5017167;28;20041;-70
2022/05/31 13:50:22;;;;;;;6.10;2.72;;;16.80;87.10;;;;;;5018178;28;20329;-70
2022/05/31 13:52:52;;;;;;;7.07;2.70;;;16.80;86.50;;;;;;5015070;28;20045;-70
2022/05/31 13:55:28;;;;;;;5.03;2.47;;;16.80;85.80;;;;;;5011207;28;20128;-70
2022/05/31 13:57:56;;;;;;;6.75;3.22;;;16.90;90.00;;;;;;5019819;28;20132;-70
2022/05/31 14:00:45;;;;;;;5.00;2.70;;;17.00;76.50;;;;;;5015106;28;20120;-70
2022/05/31 14:03:27;;;;;;;4.47;2.80;;;17.00;82.20;;;;;;5014360;28;20067;-70
2022/05/31 14:06:19;;;;;;;10.27;3.53;;;17.00;81.30;;;;;;5002559;28;20722;-70